Hauptseite
METAR-TAF:

METAR-TAF

Flughäfen :

Flughafen Pulkowo

Sankt Petersburg, Russland

Breite: 59-58N, Länge: 030-18E, Höhe: 4 m

Beobachtung

Neuester Wetterbericht von vor 16 Minuten, um 07:00 UTC
Wind 12 kt aus West/Nordwest
Temperatur 4°C
Luftfeuchtigkeit 70%
Luftdruck 1019 hPa
Sichtweite 10 km oder mehr
Aufgelockert bewölkt in der Höhe von 4800 ft

METAR: ULLI 140700Z 30006MPS 9999 SCT048 04/M01 Q1019 R28L/090060 NOSIG

Zeit: 10:16 (07:16 UTC)

Prognose

Neuester Wetterbericht von vor 2 Stunden und 22 Minuten, um 04:54 UTC
Gültige Prognose vom 14 um 06 UTC bis 15 um 06 UTC
Wind 8 kt aus West/Nordwest, Böen bis zu 17 kt
Sichtweite 10 km oder mehr
Durchbrochene Bewölkung in der Höhe von 2000 ft
Übergehend zu
vom 14 um 19 UTC bis 14 um 21 UTC
Wind 6 kt aus Nord, Böen bis zu 16 kt

TAF: ULLI 140454Z 1406/1506 29004G09MPS 9999 BKN020 BECMG 1419/1421 36003G08MPS

Wetterbeobachtungen und Prognosen von mehr als 4000 Flughäfen (METAR und TAF Bericht).

Die verfügbaren Stationen werden durch gelbe und rote Markierungen auf der Karte dargestellt.

Führen Sie die Maus auf sie, um den Namen der Station zu sehen.

Darauf klicken, um die Beobachtung von Wetterbeobachtungen und Prognosen zu sehen.

Um die Karte zu ändern : klicken Sie auf den grünen Tasten mit einem schwarzen Kreuz Zum Vergrößern, auf den grünen Button mit einem Gedankenstrich zu verkleinern, oder auf die grünen Pfeile für benachbarte Karten.


METAR-TAF: